sensor_id;sensor_type;location;lat;lon;timestamp;temperature;humidity
25716;DHT22;13573;50.936;4.328;2023-02-27T00:02:16;1.70;99.90
25716;DHT22;13573;50.936;4.328;2023-02-27T00:04:42;1.90;99.90
25716;DHT22;13573;50.936;4.328;2023-02-27T00:07:10;1.70;99.90
25716;DHT22;13573;50.936;4.328;2023-02-27T00:09:37;2.20;99.90
25716;DHT22;13573;50.936;4.328;2023-02-27T00:12:07;2.10;99.90
25716;DHT22;13573;50.936;4.328;2023-02-27T00:14:34;1.70;99.90
25716;DHT22;13573;50.936;4.328;2023-02-27T00:17:01;1.90;99.90
25716;DHT22;13573;50.936;4.328;2023-02-27T00:19:28;1.80;99.90
25716;DHT22;13573;50.936;4.328;2023-02-27T00:21:54;1.80;99.90
25716;DHT22;13573;50.936;4.328;2023-02-27T00:24:21;2.30;99.90
25716;DHT22;13573;50.936;4.328;2023-02-27T00:26:48;1.80;99.90
25716;DHT22;13573;50.936;4.328;2023-02-27T00:29:14;1.60;99.90
25716;DHT22;13573;50.936;4.328;2023-02-27T00:31:41;1.60;99.90
25716;DHT22;13573;50.936;4.328;2023-02-27T00:34:07;2.00;99.90
25716;DHT22;13573;50.936;4.328;2023-02-27T00:36:34;1.70;99.90
25716;DHT22;13573;50.936;4.328;2023-02-27T00:39:01;1.70;99.90
25716;DHT22;13573;50.936;4.328;2023-02-27T00:41:27;1.60;99.90
25716;DHT22;13573;50.936;4.328;2023-02-27T00:43:54;1.60;99.90
25716;DHT22;13573;50.936;4.328;2023-02-27T00:46:21;1.40;99.90
25716;DHT22;13573;50.936;4.328;2023-02-27T00:48:48;1.60;99.90
25716;DHT22;13573;50.936;4.328;2023-02-27T00:51:14;1.50;99.90
25716;DHT22;13573;50.936;4.328;2023-02-27T00:53:41;1.50;99.90
25716;DHT22;13573;50.936;4.328;2023-02-27T00:56:07;1.30;99.90
25716;DHT22;13573;50.936;4.328;2023-02-27T00:58:34;1.30;99.90
25716;DHT22;13573;50.936;4.328;2023-02-27T01:01:01;1.20;99.90
25716;DHT22;13573;50.936;4.328;2023-02-27T01:03:27;1.40;99.90
25716;DHT22;13573;50.936;4.328;2023-02-27T01:05:54;1.60;99.90
25716;DHT22;13573;50.936;4.328;2023-02-27T01:08:22;1.40;99.90
25716;DHT22;13573;50.936;4.328;2023-02-27T01:10:49;-0.50;99.90
25716;DHT22;13573;50.936;4.328;2023-02-27T01:13:15;1.60;99.90
25716;DHT22;13573;50.936;4.328;2023-02-27T01:15:43;1.10;99.90
25716;DHT22;13573;50.936;4.328;2023-02-27T01:18:10;1.10;99.90
25716;DHT22;13573;50.936;4.328;2023-02-27T01:20:36;0.80;99.90
25716;DHT22;13573;50.936;4.328;2023-02-27T01:23:03;1.30;99.90
25716;DHT22;13573;50.936;4.328;2023-02-27T01:25:30;1.30;99.90
25716;DHT22;13573;50.936;4.328;2023-02-27T01:27:58;1.30;99.90
25716;DHT22;13573;50.936;4.328;2023-02-27T01:30:25;1.30;99.90
25716;DHT22;13573;50.936;4.328;2023-02-27T01:32:53;1.70;99.90
25716;DHT22;13573;50.936;4.328;2023-02-27T01:35:19;1.20;99.90
25716;DHT22;13573;50.936;4.328;2023-02-27T01:37:46;1.30;99.90
25716;DHT22;13573;50.936;4.328;2023-02-27T01:40:13;-0.10;99.90
25716;DHT22;13573;50.936;4.328;2023-02-27T01:42:41;1.10;99.90
25716;DHT22;13573;50.936;4.328;2023-02-27T01:45:32;1.30;99.90
25716;DHT22;13573;50.936;4.328;2023-02-27T01:48:05;1.10;99.90
25716;DHT22;13573;50.936;4.328;2023-02-27T01:50:33;1.50;99.90
25716;DHT22;13573;50.936;4.328;2023-02-27T01:53:02;1.20;99.90
25716;DHT22;13573;50.936;4.328;2023-02-27T01:55:30;1.00;99.90
25716;DHT22;13573;50.936;4.328;2023-02-27T01:57:59;0.90;99.90
25716;DHT22;13573;50.936;4.328;2023-02-27T02:00:28;0.60;99.90
25716;DHT22;13573;50.936;4.328;2023-02-27T02:02:59;0.80;99.90
25716;DHT22;13573;50.936;4.328;2023-02-27T02:05:27;0.90;99.90
25716;DHT22;13573;50.936;4.328;2023-02-27T02:07:57;1.00;99.90
25716;DHT22;13573;50.936;4.328;2023-02-27T02:10:25;0.60;99.90
25716;DHT22;13573;50.936;4.328;2023-02-27T02:12:52;1.00;99.90
25716;DHT22;13573;50.936;4.328;2023-02-27T02:15:23;0.70;99.90
25716;DHT22;13573;50.936;4.328;2023-02-27T02:21:04;0.80;99.90
25716;DHT22;13573;50.936;4.328;2023-02-27T02:23:40;-0.30;99.90
25716;DHT22;13573;50.936;4.328;2023-02-27T02:26:29;0.70;99.90
25716;DHT22;13573;50.936;4.328;2023-02-27T02:29:04;1.40;99.90
25716;DHT22;13573;50.936;4.328;2023-02-27T02:31:41;0.60;99.90
25716;DHT22;13573;50.936;4.328;2023-02-27T02:34:25;0.40;99.90
25716;DHT22;13573;50.936;4.328;2023-02-27T02:39:56;0.90;99.90
25716;DHT22;13573;50.936;4.328;2023-02-27T02:42:31;0.60;99.90
25716;DHT22;13573;50.936;4.328;2023-02-27T02:45:08;0.30;99.90
25716;DHT22;13573;50.936;4.328;2023-02-27T02:47:43;1.00;99.90
25716;DHT22;13573;50.936;4.328;2023-02-27T02:50:11;0.30;99.90
25716;DHT22;13573;50.936;4.328;2023-02-27T02:52:49;1.00;99.90
25716;DHT22;13573;50.936;4.328;2023-02-27T02:55:26;0.60;99.90
25716;DHT22;13573;50.936;4.328;2023-02-27T02:58:02;0.60;99.90
25716;DHT22;13573;50.936;4.328;2023-02-27T03:00:34;0.80;99.90
25716;DHT22;13573;50.936;4.328;2023-02-27T03:03:07;0.40;99.90
25716;DHT22;13573;50.936;4.328;2023-02-27T03:10:44;0.50;99.90
25716;DHT22;13573;50.936;4.328;2023-02-27T03:18:19;0.40;99.90
25716;DHT22;13573;50.936;4.328;2023-02-27T03:20:51;0.30;99.90
25716;DHT22;13573;50.936;4.328;2023-02-27T03:23:23;0.10;99.90
25716;DHT22;13573;50.936;4.328;2023-02-27T03:25:50;0.40;99.90
25716;DHT22;13573;50.936;4.328;2023-02-27T03:28:22;0.50;99.90
25716;DHT22;13573;50.936;4.328;2023-02-27T03:30:56;0.70;99.90
25716;DHT22;13573;50.936;4.328;2023-02-27T03:33:31;1.50;99.90
25716;DHT22;13573;50.936;4.328;2023-02-27T03:36:05;0.40;99.90
25716;DHT22;13573;50.936;4.328;2023-02-27T03:46:06;0.50;99.90
25716;DHT22;13573;50.936;4.328;2023-02-27T03:48:32;0.50;99.90
25716;DHT22;13573;50.936;4.328;2023-02-27T03:50:59;1.50;99.90
25716;DHT22;13573;50.936;4.328;2023-02-27T03:53:35;0.30;99.90
25716;DHT22;13573;50.936;4.328;2023-02-27T03:56:02;0.20;99.90
25716;DHT22;13573;50.936;4.328;2023-02-27T03:58:32;0.40;99.90
25716;DHT22;13573;50.936;4.328;2023-02-27T04:00:58;0.60;99.90
25716;DHT22;13573;50.936;4.328;2023-02-27T04:03:25;0.50;99.90
25716;DHT22;13573;50.936;4.328;2023-02-27T04:05:52;0.30;99.90
25716;DHT22;13573;50.936;4.328;2023-02-27T04:08:30;0.40;99.90
25716;DHT22;13573;50.936;4.328;2023-02-27T04:13:49;0.40;99.90
25716;DHT22;13573;50.936;4.328;2023-02-27T04:16:22;1.00;99.90
25716;DHT22;13573;50.936;4.328;2023-02-27T04:19:01;0.30;99.90
25716;DHT22;13573;50.936;4.328;2023-02-27T04:24:53;0.90;99.90
25716;DHT22;13573;50.936;4.328;2023-02-27T04:27:15;-0.10;99.90
25716;DHT22;13573;50.936;4.328;2023-02-27T04:29:58;0.00;99.90
25716;DHT22;13573;50.936;4.328;2023-02-27T04:32:34;0.00;99.90
25716;DHT22;13573;50.936;4.328;2023-02-27T04:35:14;0.00;99.90
25716;DHT22;13573;50.936;4.328;2023-02-27T04:37:47;-0.10;99.90
25716;DHT22;13573;50.936;4.328;2023-02-27T04:45:15;0.30;99.90
25716;DHT22;13573;50.936;4.328;2023-02-27T04:47:46;-0.40;99.90
25716;DHT22;13573;50.936;4.328;2023-02-27T04:50:21;-0.50;99.90
25716;DHT22;13573;50.936;4.328;2023-02-27T04:55:22;-0.10;99.90
25716;DHT22;13573;50.936;4.328;2023-02-27T05:00:21;-0.10;99.90
25716;DHT22;13573;50.936;4.328;2023-02-27T05:02:56;-0.10;99.90
25716;DHT22;13573;50.936;4.328;2023-02-27T05:05:25;-0.10;99.90
25716;DHT22;13573;50.936;4.328;2023-02-27T05:07:59;0.70;99.90
25716;DHT22;13573;50.936;4.328;2023-02-27T05:10:34;0.40;99.90
25716;DHT22;13573;50.936;4.328;2023-02-27T05:13:06;-0.20;99.90
25716;DHT22;13573;50.936;4.328;2023-02-27T05:15:43;-0.20;99.90
25716;DHT22;13573;50.936;4.328;2023-02-27T05:18:13;-0.30;99.90
25716;DHT22;13573;50.936;4.328;2023-02-27T05:20:49;-0.40;99.90
25716;DHT22;13573;50.936;4.328;2023-02-27T05:25:54;-1.50;99.90
25716;DHT22;13573;50.936;4.328;2023-02-27T05:28:32;-0.60;99.90
25716;DHT22;13573;50.936;4.328;2023-02-27T05:31:02;-0.40;99.90
25716;DHT22;13573;50.936;4.328;2023-02-27T05:33:32;-1.00;99.90
25716;DHT22;13573;50.936;4.328;2023-02-27T05:36:11;-0.60;99.90
25716;DHT22;13573;50.936;4.328;2023-02-27T05:38:43;-0.30;99.90
25716;DHT22;13573;50.936;4.328;2023-02-27T05:41:13;-0.40;99.90
25716;DHT22;13573;50.936;4.328;2023-02-27T05:43:46;-1.50;99.90
25716;DHT22;13573;50.936;4.328;2023-02-27T05:46:21;-1.70;99.90
25716;DHT22;13573;50.936;4.328;2023-02-27T05:48:53;-0.40;99.90
25716;DHT22;13573;50.936;4.328;2023-02-27T05:51:23;-0.20;99.90
25716;DHT22;13573;50.936;4.328;2023-02-27T05:56:22;-1.50;99.90
25716;DHT22;13573;50.936;4.328;2023-02-27T05:58:54;-0.50;99.90
25716;DHT22;13573;50.936;4.328;2023-02-27T06:01:22;-0.20;99.90
25716;DHT22;13573;50.936;4.328;2023-02-27T06:06:18;-0.20;99.90
25716;DHT22;13573;50.936;4.328;2023-02-27T06:08:46;-0.40;99.90
25716;DHT22;13573;50.936;4.328;2023-02-27T06:11:12;-0.30;99.90
25716;DHT22;13573;50.936;4.328;2023-02-27T06:13:40;-0.30;99.90
25716;DHT22;13573;50.936;4.328;2023-02-27T06:16:09;0.40;99.90
25716;DHT22;13573;50.936;4.328;2023-02-27T06:18:36;0.60;99.90
25716;DHT22;13573;50.936;4.328;2023-02-27T06:21:03;0.00;99.90
25716;DHT22;13573;50.936;4.328;2023-02-27T06:23:30;-0.20;99.90
25716;DHT22;13573;50.936;4.328;2023-02-27T06:25:57;-0.10;99.90
25716;DHT22;13573;50.936;4.328;2023-02-27T06:28:24;-0.20;99.90
25716;DHT22;13573;50.936;4.328;2023-02-27T06:30:53;-0.10;99.90
25716;DHT22;13573;50.936;4.328;2023-02-27T06:33:20;0.60;99.90
25716;DHT22;13573;50.936;4.328;2023-02-27T06:35:47;-0.50;99.90
25716;DHT22;13573;50.936;4.328;2023-02-27T06:38:14;-0.30;99.90
25716;DHT22;13573;50.936;4.328;2023-02-27T06:40:41;-0.30;99.90
25716;DHT22;13573;50.936;4.328;2023-02-27T06:43:07;0.10;99.90
25716;DHT22;13573;50.936;4.328;2023-02-27T06:45:35;-1.00;99.90
25716;DHT22;13573;50.936;4.328;2023-02-27T06:48:03;0.10;99.90
25716;DHT22;13573;50.936;4.328;2023-02-27T06:50:31;0.10;99.90
25716;DHT22;13573;50.936;4.328;2023-02-27T06:52:57;0.30;99.90
25716;DHT22;13573;50.936;4.328;2023-02-27T06:55:24;-0.40;99.90
25716;DHT22;13573;50.936;4.328;2023-02-27T06:57:51;1.00;99.90
25716;DHT22;13573;50.936;4.328;2023-02-27T07:00:18;1.50;99.90
25716;DHT22;13573;50.936;4.328;2023-02-27T07:02:45;1.90;99.90
25716;DHT22;13573;50.936;4.328;2023-02-27T07:05:11;1.40;99.90
25716;DHT22;13573;50.936;4.328;2023-02-27T07:07:38;1.30;99.90
25716;DHT22;13573;50.936;4.328;2023-02-27T07:10:09;1.80;99.90
25716;DHT22;13573;50.936;4.328;2023-02-27T07:12:38;3.00;99.90
25716;DHT22;13573;50.936;4.328;2023-02-27T07:15:07;3.70;99.90
25716;DHT22;13573;50.936;4.328;2023-02-27T07:17:34;3.90;99.90
25716;DHT22;13573;50.936;4.328;2023-02-27T07:20:01;4.50;99.90
25716;DHT22;13573;50.936;4.328;2023-02-27T07:22:28;3.40;99.90
25716;DHT22;13573;50.936;4.328;2023-02-27T07:24:55;3.80;99.90
25716;DHT22;13573;50.936;4.328;2023-02-27T07:29:48;5.80;99.90
25716;DHT22;13573;50.936;4.328;2023-02-27T07:32:15;5.30;99.90
25716;DHT22;13573;50.936;4.328;2023-02-27T07:34:45;6.50;99.90
25716;DHT22;13573;50.936;4.328;2023-02-27T07:37:15;6.50;99.90
25716;DHT22;13573;50.936;4.328;2023-02-27T07:39:43;7.20;99.90
25716;DHT22;13573;50.936;4.328;2023-02-27T07:42:10;7.30;99.90
25716;DHT22;13573;50.936;4.328;2023-02-27T07:44:37;7.50;99.90
25716;DHT22;13573;50.936;4.328;2023-02-27T07:47:05;7.60;99.90
25716;DHT22;13573;50.936;4.328;2023-02-27T07:49:33;8.10;99.90
25716;DHT22;13573;50.936;4.328;2023-02-27T07:52:00;8.60;99.90
25716;DHT22;13573;50.936;4.328;2023-02-27T07:56:54;7.10;99.90
25716;DHT22;13573;50.936;4.328;2023-02-27T07:59:20;8.30;99.90
25716;DHT22;13573;50.936;4.328;2023-02-27T08:01:55;6.70;99.90
25716;DHT22;13573;50.936;4.328;2023-02-27T08:04:21;6.80;99.90
25716;DHT22;13573;50.936;4.328;2023-02-27T08:06:48;7.90;99.90
25716;DHT22;13573;50.936;4.328;2023-02-27T08:09:15;7.50;99.90
25716;DHT22;13573;50.936;4.328;2023-02-27T08:11:42;7.70;99.90
25716;DHT22;13573;50.936;4.328;2023-02-27T08:14:09;8.10;99.90
25716;DHT22;13573;50.936;4.328;2023-02-27T08:16:35;8.60;99.90
25716;DHT22;13573;50.936;4.328;2023-02-27T08:19:02;9.20;99.90
25716;DHT22;13573;50.936;4.328;2023-02-27T08:21:29;9.60;99.90
25716;DHT22;13573;50.936;4.328;2023-02-27T08:23:56;9.20;99.90
25716;DHT22;13573;50.936;4.328;2023-02-27T08:26:22;10.90;99.90
25716;DHT22;13573;50.936;4.328;2023-02-27T08:28:49;11.10;99.90
25716;DHT22;13573;50.936;4.328;2023-02-27T08:33:43;11.40;99.90
25716;DHT22;13573;50.936;4.328;2023-02-27T08:38:38;10.60;99.90
25716;DHT22;13573;50.936;4.328;2023-02-27T08:41:07;9.70;99.90
25716;DHT22;13573;50.936;4.328;2023-02-27T08:46:00;11.30;99.90
25716;DHT22;13573;50.936;4.328;2023-02-27T08:53:20;11.30;99.90
25716;DHT22;13573;50.936;4.328;2023-02-27T08:55:48;12.00;99.90
25716;DHT22;13573;50.936;4.328;2023-02-27T08:58:16;11.60;99.90
25716;DHT22;13573;50.936;4.328;2023-02-27T09:00:43;10.80;99.90
25716;DHT22;13573;50.936;4.328;2023-02-27T09:03:10;10.40;99.90
25716;DHT22;13573;50.936;4.328;2023-02-27T09:05:36;10.30;99.90
25716;DHT22;13573;50.936;4.328;2023-02-27T09:10:31;11.90;99.90
25716;DHT22;13573;50.936;4.328;2023-02-27T09:12:59;11.60;99.90
25716;DHT22;13573;50.936;4.328;2023-02-27T09:15:26;13.10;99.90
25716;DHT22;13573;50.936;4.328;2023-02-27T09:20:21;13.30;99.90
25716;DHT22;13573;50.936;4.328;2023-02-27T09:22:48;11.80;99.90
25716;DHT22;13573;50.936;4.328;2023-02-27T09:27:41;12.70;99.90
25716;DHT22;13573;50.936;4.328;2023-02-27T09:30:09;12.70;99.90
25716;DHT22;13573;50.936;4.328;2023-02-27T09:32:36;11.20;99.90
25716;DHT22;13573;50.936;4.328;2023-02-27T09:35:03;11.60;99.90
25716;DHT22;13573;50.936;4.328;2023-02-27T09:37:32;12.30;99.90
25716;DHT22;13573;50.936;4.328;2023-02-27T09:39:58;12.90;99.90
25716;DHT22;13573;50.936;4.328;2023-02-27T09:42:27;11.10;99.90
25716;DHT22;13573;50.936;4.328;2023-02-27T09:45:00;12.20;99.90
25716;DHT22;13573;50.936;4.328;2023-02-27T09:47:38;12.00;99.90
25716;DHT22;13573;50.936;4.328;2023-02-27T09:50:46;12.30;99.90
25716;DHT22;13573;50.936;4.328;2023-02-27T09:52:55;12.50;99.90
25716;DHT22;13573;50.936;4.328;2023-02-27T09:55:24;12.40;99.90
25716;DHT22;13573;50.936;4.328;2023-02-27T09:57:58;11.60;99.90
25716;DHT22;13573;50.936;4.328;2023-02-27T10:03:43;10.30;99.90
25716;DHT22;13573;50.936;4.328;2023-02-27T10:06:24;11.70;99.90
25716;DHT22;13573;50.936;4.328;2023-02-27T10:10:06;10.90;99.90
25716;DHT22;13573;50.936;4.328;2023-02-27T10:11:51;11.40;99.90
25716;DHT22;13573;50.936;4.328;2023-02-27T10:14:33;12.70;99.90
25716;DHT22;13573;50.936;4.328;2023-02-27T10:16:58;12.00;99.90
25716;DHT22;13573;50.936;4.328;2023-02-27T10:19:30;11.80;99.90
25716;DHT22;13573;50.936;4.328;2023-02-27T10:22:00;13.00;99.90
25716;DHT22;13573;50.936;4.328;2023-02-27T10:24:34;13.00;99.90
25716;DHT22;13573;50.936;4.328;2023-02-27T10:27:04;12.50;99.90
25716;DHT22;13573;50.936;4.328;2023-02-27T10:29:34;14.50;99.90
25716;DHT22;13573;50.936;4.328;2023-02-27T10:34:53;12.50;99.90
25716;DHT22;13573;50.936;4.328;2023-02-27T10:37:21;12.10;99.90
25716;DHT22;13573;50.936;4.328;2023-02-27T10:39:55;12.20;99.90
25716;DHT22;13573;50.936;4.328;2023-02-27T10:42:25;11.10;99.90
25716;DHT22;13573;50.936;4.328;2023-02-27T10:44:53;13.00;99.90
25716;DHT22;13573;50.936;4.328;2023-02-27T10:47:24;12.90;99.90
25716;DHT22;13573;50.936;4.328;2023-02-27T10:49:52;11.50;99.90
25716;DHT22;13573;50.936;4.328;2023-02-27T10:52:20;12.50;99.90
25716;DHT22;13573;50.936;4.328;2023-02-27T10:54:46;12.30;99.90
25716;DHT22;13573;50.936;4.328;2023-02-27T10:57:36;12.00;99.90
25716;DHT22;13573;50.936;4.328;2023-02-27T11:10:26;13.20;99.90
25716;DHT22;13573;50.936;4.328;2023-02-27T11:15:35;12.80;99.90
25716;DHT22;13573;50.936;4.328;2023-02-27T11:20:43;11.90;99.90
25716;DHT22;13573;50.936;4.328;2023-02-27T11:23:17;13.40;99.90
25716;DHT22;13573;50.936;4.328;2023-02-27T11:25:48;11.60;99.90
25716;DHT22;13573;50.936;4.328;2023-02-27T11:28:25;12.90;99.90
25716;DHT22;13573;50.936;4.328;2023-02-27T11:38:22;13.80;99.90
25716;DHT22;13573;50.936;4.328;2023-02-27T11:40:56;15.00;99.90
25716;DHT22;13573;50.936;4.328;2023-02-27T11:43:35;14.40;99.90
25716;DHT22;13573;50.936;4.328;2023-02-27T11:48:37;13.90;99.90
25716;DHT22;13573;50.936;4.328;2023-02-27T11:54:06;13.30;99.90
25716;DHT22;13573;50.936;4.328;2023-02-27T11:56:37;13.60;99.90
25716;DHT22;13573;50.936;4.328;2023-02-27T11:59:28;15.00;99.90
25716;DHT22;13573;50.936;4.328;2023-02-27T12:01:59;15.20;99.90
25716;DHT22;13573;50.936;4.328;2023-02-27T12:04:31;14.80;99.90
25716;DHT22;13573;50.936;4.328;2023-02-27T12:07:11;14.90;99.90
25716;DHT22;13573;50.936;4.328;2023-02-27T12:09:46;14.90;99.90
25716;DHT22;13573;50.936;4.328;2023-02-27T12:12:19;16.10;99.90
25716;DHT22;13573;50.936;4.328;2023-02-27T12:17:38;14.90;99.90
25716;DHT22;13573;50.936;4.328;2023-02-27T12:20:21;14.20;99.90
25716;DHT22;13573;50.936;4.328;2023-02-27T12:22:47;13.80;99.90
25716;DHT22;13573;50.936;4.328;2023-02-27T12:25:39;14.30;99.90
25716;DHT22;13573;50.936;4.328;2023-02-27T12:28:11;13.80;99.90
25716;DHT22;13573;50.936;4.328;2023-02-27T12:30:41;13.80;99.90
25716;DHT22;13573;50.936;4.328;2023-02-27T12:33:24;15.00;99.90
25716;DHT22;13573;50.936;4.328;2023-02-27T12:35:52;14.80;99.90
25716;DHT22;13573;50.936;4.328;2023-02-27T12:38:21;13.60;99.90
25716;DHT22;13573;50.936;4.328;2023-02-27T12:40:57;13.80;99.90
25716;DHT22;13573;50.936;4.328;2023-02-27T12:46:15;14.10;99.90
25716;DHT22;13573;50.936;4.328;2023-02-27T12:48:51;14.90;99.90
25716;DHT22;13573;50.936;4.328;2023-02-27T12:51:42;14.70;99.90
25716;DHT22;13573;50.936;4.328;2023-02-27T12:54:17;14.00;99.20
25716;DHT22;13573;50.936;4.328;2023-02-27T12:59:46;13.70;99.90
25716;DHT22;13573;50.936;4.328;2023-02-27T13:02:36;14.80;99.90
25716;DHT22;13573;50.936;4.328;2023-02-27T13:05:12;14.40;99.90
25716;DHT22;13573;50.936;4.328;2023-02-27T13:07:48;14.40;99.90
25716;DHT22;13573;50.936;4.328;2023-02-27T13:10:20;14.60;98.60
25716;DHT22;13573;50.936;4.328;2023-02-27T13:12:50;13.70;99.90
25716;DHT22;13573;50.936;4.328;2023-02-27T13:15:22;13.80;99.90
25716;DHT22;13573;50.936;4.328;2023-02-27T13:23:14;14.80;99.90
25716;DHT22;13573;50.936;4.328;2023-02-27T13:25:40;13.90;99.90
25716;DHT22;13573;50.936;4.328;2023-02-27T13:28:12;15.00;99.90
25716;DHT22;13573;50.936;4.328;2023-02-27T13:33:20;14.80;99.90
25716;DHT22;13573;50.936;4.328;2023-02-27T13:35:55;15.50;99.90
25716;DHT22;13573;50.936;4.328;2023-02-27T13:38:30;15.30;98.10
25716;DHT22;13573;50.936;4.328;2023-02-27T13:43:34;16.30;98.30
25716;DHT22;13573;50.936;4.328;2023-02-27T13:46:03;15.70;99.90
25716;DHT22;13573;50.936;4.328;2023-02-27T13:48:38;14.90;99.90
25716;DHT22;13573;50.936;4.328;2023-02-27T13:51:08;13.60;99.90
25716;DHT22;13573;50.936;4.328;2023-02-27T13:53:36;13.20;98.20
25716;DHT22;13573;50.936;4.328;2023-02-27T13:56:17;12.40;99.90
25716;DHT22;13573;50.936;4.328;2023-02-27T13:58:43;11.30;99.90
25716;DHT22;13573;50.936;4.328;2023-02-27T14:03:39;10.70;99.90
25716;DHT22;13573;50.936;4.328;2023-02-27T14:06:08;11.20;99.90
25716;DHT22;13573;50.936;4.328;2023-02-27T14:08:45;12.70;99.90
25716;DHT22;13573;50.936;4.328;2023-02-27T14:11:18;13.20;99.90
25716;DHT22;13573;50.936;4.328;2023-02-27T14:14:00;12.90;99.90
25716;DHT22;13573;50.936;4.328;2023-02-27T14:19:41;14.30;99.90
25716;DHT22;13573;50.936;4.328;2023-02-27T14:21:59;15.00;99.90
25716;DHT22;13573;50.936;4.328;2023-02-27T14:24:34;13.30;99.90
25716;DHT22;13573;50.936;4.328;2023-02-27T14:27:14;13.30;99.90
25716;DHT22;13573;50.936;4.328;2023-02-27T14:29:34;11.70;99.90
25716;DHT22;13573;50.936;4.328;2023-02-27T14:32:03;9.70;99.90
25716;DHT22;13573;50.936;4.328;2023-02-27T14:34:34;10.70;99.90
25716;DHT22;13573;50.936;4.328;2023-02-27T14:39:33;13.60;99.90
25716;DHT22;13573;50.936;4.328;2023-02-27T14:44:39;13.30;99.90
25716;DHT22;13573;50.936;4.328;2023-02-27T14:47:16;13.50;99.90
25716;DHT22;13573;50.936;4.328;2023-02-27T14:52:28;12.20;99.90
25716;DHT22;13573;50.936;4.328;2023-02-27T14:57:59;12.90;99.90
25716;DHT22;13573;50.936;4.328;2023-02-27T15:00:32;12.50;99.90
25716;DHT22;13573;50.936;4.328;2023-02-27T15:02:59;12.40;99.90
25716;DHT22;13573;50.936;4.328;2023-02-27T15:05:30;12.10;99.90
25716;DHT22;13573;50.936;4.328;2023-02-27T15:07:57;12.00;97.80
25716;DHT22;13573;50.936;4.328;2023-02-27T15:10:27;10.90;99.90
25716;DHT22;13573;50.936;4.328;2023-02-27T15:12:58;11.20;99.90
25716;DHT22;13573;50.936;4.328;2023-02-27T15:15:26;11.30;99.90
25716;DHT22;13573;50.936;4.328;2023-02-27T15:17:54;11.90;99.90
25716;DHT22;13573;50.936;4.328;2023-02-27T15:20:27;11.80;99.90
25716;DHT22;13573;50.936;4.328;2023-02-27T15:22:56;9.90;99.90
25716;DHT22;13573;50.936;4.328;2023-02-27T15:25:30;11.80;99.90
25716;DHT22;13573;50.936;4.328;2023-02-27T15:28:00;9.30;99.90
25716;DHT22;13573;50.936;4.328;2023-02-27T15:30:28;8.90;99.90
25716;DHT22;13573;50.936;4.328;2023-02-27T15:32:55;10.60;99.90
25716;DHT22;13573;50.936;4.328;2023-02-27T15:37:55;9.00;99.90
25716;DHT22;13573;50.936;4.328;2023-02-27T15:40:26;8.80;99.90
25716;DHT22;13573;50.936;4.328;2023-02-27T15:42:54;7.40;99.90
25716;DHT22;13573;50.936;4.328;2023-02-27T15:45:24;8.70;99.90
25716;DHT22;13573;50.936;4.328;2023-02-27T15:47:51;8.90;99.90
25716;DHT22;13573;50.936;4.328;2023-02-27T15:50:24;6.80;99.90
25716;DHT22;13573;50.936;4.328;2023-02-27T15:53:10;6.40;99.90
25716;DHT22;13573;50.936;4.328;2023-02-27T15:55:40;7.30;99.90
25716;DHT22;13573;50.936;4.328;2023-02-27T15:58:27;7.50;99.90
25716;DHT22;13573;50.936;4.328;2023-02-27T16:01:02;7.70;99.90
25716;DHT22;13573;50.936;4.328;2023-02-27T16:03:32;8.10;99.90
25716;DHT22;13573;50.936;4.328;2023-02-27T16:06:00;8.20;99.90
25716;DHT22;13573;50.936;4.328;2023-02-27T16:08:29;8.00;99.90
25716;DHT22;13573;50.936;4.328;2023-02-27T16:10:56;7.10;99.90
25716;DHT22;13573;50.936;4.328;2023-02-27T16:13:30;7.30;99.90
25716;DHT22;13573;50.936;4.328;2023-02-27T16:16:03;8.80;99.90
25716;DHT22;13573;50.936;4.328;2023-02-27T16:18:32;8.20;99.90
25716;DHT22;13573;50.936;4.328;2023-02-27T16:21:08;8.60;99.90
25716;DHT22;13573;50.936;4.328;2023-02-27T16:23:36;8.40;99.90
25716;DHT22;13573;50.936;4.328;2023-02-27T16:26:28;8.70;99.90
25716;DHT22;13573;50.936;4.328;2023-02-27T16:28:59;6.90;99.90
25716;DHT22;13573;50.936;4.328;2023-02-27T16:31:32;7.90;99.90
25716;DHT22;13573;50.936;4.328;2023-02-27T16:34:13;7.60;99.90
25716;DHT22;13573;50.936;4.328;2023-02-27T16:36:31;7.50;99.90
25716;DHT22;13573;50.936;4.328;2023-02-27T16:38:58;7.40;99.90
25716;DHT22;13573;50.936;4.328;2023-02-27T16:41:26;7.20;99.90
25716;DHT22;13573;50.936;4.328;2023-02-27T16:43:52;7.40;99.90
25716;DHT22;13573;50.936;4.328;2023-02-27T16:48:51;7.10;99.90
25716;DHT22;13573;50.936;4.328;2023-02-27T16:51:21;5.50;99.90
25716;DHT22;13573;50.936;4.328;2023-02-27T16:53:55;6.90;99.90
25716;DHT22;13573;50.936;4.328;2023-02-27T16:56:24;6.60;99.90
25716;DHT22;13573;50.936;4.328;2023-02-27T17:01:19;7.20;99.90
25716;DHT22;13573;50.936;4.328;2023-02-27T17:03:47;6.80;99.90
25716;DHT22;13573;50.936;4.328;2023-02-27T17:06:14;6.70;99.90
25716;DHT22;13573;50.936;4.328;2023-02-27T17:13:36;5.90;99.90
25716;DHT22;13573;50.936;4.328;2023-02-27T17:18:30;5.50;99.90
25716;DHT22;13573;50.936;4.328;2023-02-27T17:20:59;6.00;99.90
25716;DHT22;13573;50.936;4.328;2023-02-27T17:23:26;6.10;99.90
25716;DHT22;13573;50.936;4.328;2023-02-27T17:25:53;5.60;99.90
25716;DHT22;13573;50.936;4.328;2023-02-27T17:28:21;4.60;99.90
25716;DHT22;13573;50.936;4.328;2023-02-27T17:30:49;6.00;99.90
25716;DHT22;13573;50.936;4.328;2023-02-27T17:33:16;5.80;99.90
25716;DHT22;13573;50.936;4.328;2023-02-27T17:35:43;5.70;99.90
25716;DHT22;13573;50.936;4.328;2023-02-27T17:38:10;6.00;99.90
25716;DHT22;13573;50.936;4.328;2023-02-27T17:40:36;6.10;99.90
25716;DHT22;13573;50.936;4.328;2023-02-27T17:43:04;4.40;99.90
25716;DHT22;13573;50.936;4.328;2023-02-27T17:45:31;6.00;99.90
25716;DHT22;13573;50.936;4.328;2023-02-27T17:47:57;5.80;99.90
25716;DHT22;13573;50.936;4.328;2023-02-27T17:50:24;4.80;99.90
25716;DHT22;13573;50.936;4.328;2023-02-27T17:52:51;4.90;99.90
25716;DHT22;13573;50.936;4.328;2023-02-27T17:55:17;5.90;99.90
25716;DHT22;13573;50.936;4.328;2023-02-27T17:57:44;5.90;99.90
25716;DHT22;13573;50.936;4.328;2023-02-27T18:00:12;6.20;99.90
25716;DHT22;13573;50.936;4.328;2023-02-27T18:02:42;5.50;99.90
25716;DHT22;13573;50.936;4.328;2023-02-27T18:05:09;6.20;99.90
25716;DHT22;13573;50.936;4.328;2023-02-27T18:07:36;6.10;99.90
25716;DHT22;13573;50.936;4.328;2023-02-27T18:10:04;5.90;99.90
25716;DHT22;13573;50.936;4.328;2023-02-27T18:12:31;6.90;99.90
25716;DHT22;13573;50.936;4.328;2023-02-27T18:14:58;5.70;99.90
25716;DHT22;13573;50.936;4.328;2023-02-27T18:17:25;5.70;99.90
25716;DHT22;13573;50.936;4.328;2023-02-27T18:19:52;5.60;99.90
25716;DHT22;13573;50.936;4.328;2023-02-27T18:22:19;6.60;99.90
25716;DHT22;13573;50.936;4.328;2023-02-27T18:24:47;5.80;99.90
25716;DHT22;13573;50.936;4.328;2023-02-27T18:29:41;5.80;99.90
25716;DHT22;13573;50.936;4.328;2023-02-27T18:32:08;5.70;99.90
25716;DHT22;13573;50.936;4.328;2023-02-27T18:34:35;4.60;99.90
25716;DHT22;13573;50.936;4.328;2023-02-27T18:37:01;6.10;99.90
25716;DHT22;13573;50.936;4.328;2023-02-27T18:39:28;4.60;99.90